Larrys River, Canada
Current Conditions -  °F | °C
As of 5:00 PM on Saturday 20 Dec 2014 (Local Time) from CYPD Reporting Station
Overcast Overcast  
Wind Chill: 32°   Ceiling: 3100
Heat Index: 32°   Visibility: 9mi
Dew Point: 27°   Wind: 2mph
Humidity: 80%   Direction: NA
Pressure: 30.22"   Gusts: NA
Location:  45.22°N, 61.37°W
Report Text: CYPD 202100Z AUTO VRB02KT 9SM BKN031 OVC035 00/M03 A3022 RMK SLP238
Loading
Personal Weather Stations






























Interactive Weather Map New forecast layout! Learn more

10-Day Weather Forecast

Advertisements
Track Severe Weather on mobile